IGO1171 VOMM-VCBI
Flight info
| Callsign | IGO1171 |
|---|---|
| Flight time | 1h 3m |
| Altitude | 36000 |
| Route | PATTY DCT TEGUT R457 TTR/N0448F350 G325 IDIBI IDIBI1A |
| Aircraft | A21N/M-SDE2E3FGHIRWXY/LB1 |
Departure
| Time | 2026-04-22 09:17 |
|---|---|
| Airport | Chennai International Airport (VOMM) |
Arrival
| Time | 2026-04-22 10:20 |
|---|---|
| Airport | Bandaranaike International Colombo Airport (VCBI) |
| Time | Latitude | Longitude | Altitude | Speed | Heading |
|---|---|---|---|---|---|
| 2026-04-22 08:59 | 12.98308 | 80.16248 | 51 ft | 0 kts | 152° |
| 2026-04-22 09:08 | 12.98313 | 80.16245 | 51 ft | 2 kts | 152° |
| 2026-04-22 09:09 | 12.98328 | 80.16237 | 48 ft | 2 kts | 152° |
| 2026-04-22 09:09 | 12.98343 | 80.16229 | 48 ft | 2 kts | 152° |
| 2026-04-22 09:09 | 12.98356 | 80.16219 | 46 ft | 2 kts | 110° |
| 2026-04-22 09:09 | 12.98358 | 80.16201 | 51 ft | 2 kts | 77° |
| 2026-04-22 09:10 | 12.98359 | 80.16199 | 51 ft | 2 kts | 62° |
| 2026-04-22 09:10 | 12.98379 | 80.16220 | 47 ft | 0 kts | 31° |
| 2026-04-22 09:10 | 12.98397 | 80.16241 | 51 ft | 8 kts | 59° |
| 2026-04-22 09:10 | 12.98427 | 80.16318 | 51 ft | 15 kts | 69° |
| 2026-04-22 09:11 | 12.98472 | 80.16440 | 51 ft | 22 kts | 68° |
| 2026-04-22 09:11 | 12.98531 | 80.16598 | 49 ft | 25 kts | 71° |
| 2026-04-22 09:11 | 12.98600 | 80.16751 | 51 ft | 16 kts | 18° |
| 2026-04-22 09:11 | 12.98710 | 80.16734 | 51 ft | 17 kts | 350° |
| 2026-04-22 09:12 | 12.98761 | 80.16755 | 48 ft | 2 kts | 63° |
| 2026-04-22 09:12 | 12.98773 | 80.16780 | 51 ft | 6 kts | 67° |
| 2026-04-22 09:12 | 12.98799 | 80.16850 | 50 ft | 15 kts | 69° |
| 2026-04-22 09:12 | 12.98847 | 80.16974 | 51 ft | 22 kts | 69° |
| 2026-04-22 09:13 | 12.98911 | 80.17145 | 49 ft | 29 kts | 69° |
| 2026-04-22 09:13 | 12.98998 | 80.17339 | 50 ft | 29 kts | 69° |
| 2026-04-22 09:13 | 12.99074 | 80.17544 | 52 ft | 33 kts | 69° |
| 2026-04-22 09:13 | 12.99167 | 80.17710 | 54 ft | 18 kts | 22° |
| 2026-04-22 09:14 | 12.99246 | 80.17826 | 53 ft | 24 kts | 68° |
| 2026-04-22 09:14 | 12.99314 | 80.18005 | 53 ft | 30 kts | 69° |
| 2026-04-22 09:14 | 12.99363 | 80.18168 | 55 ft | 20 kts | 85° |
| 2026-04-22 09:14 | 12.99419 | 80.18310 | 49 ft | 26 kts | 43° |
| 2026-04-22 09:15 | 12.99549 | 80.18402 | 55 ft | 10 kts | 341° |
| 2026-04-22 09:15 | 12.99563 | 80.18360 | 54 ft | 9 kts | 261° |
| 2026-04-22 09:15 | 12.99543 | 80.18299 | 52 ft | 0 kts | 249° |
| 2026-04-22 09:15 | 12.99533 | 80.18272 | 49 ft | 17 kts | 247° |
| 2026-04-22 09:16 | 12.99415 | 80.17959 | 51 ft | 75 kts | 249° |
| 2026-04-22 09:16 | 12.99155 | 80.17274 | 50 ft | 132 kts | 249° |
| 2026-04-22 09:16 | 12.98768 | 80.16224 | 104 ft | 174 kts | 246° |
| 2026-04-22 09:16 | 12.98351 | 80.14997 | 375 ft | 190 kts | 248° |
| 2026-04-22 09:17 | 12.97753 | 80.13792 | 884 ft | 187 kts | 229° |
| 2026-04-22 09:17 | 12.96910 | 80.12843 | 1682 ft | 174 kts | 219° |
| 2026-04-22 09:17 | 12.95998 | 80.11979 | 2202 ft | 190 kts | 218° |
| 2026-04-22 09:17 | 12.94949 | 80.10974 | 2382 ft | 221 kts | 223° |
| 2026-04-22 09:18 | 12.93861 | 80.09806 | 2894 ft | 231 kts | 226° |
| 2026-04-22 09:18 | 12.92806 | 80.08543 | 3593 ft | 235 kts | 228° |
| 2026-04-22 09:18 | 12.91779 | 80.07224 | 4340 ft | 238 kts | 231° |
| 2026-04-22 09:18 | 12.90765 | 80.05873 | 4803 ft | 241 kts | 231° |
| 2026-04-22 09:19 | 12.89735 | 80.04482 | 4979 ft | 247 kts | 231° |
| 2026-04-22 09:19 | 12.88703 | 80.03085 | 4975 ft | 250 kts | 231° |
| 2026-04-22 09:19 | 12.87649 | 80.01666 | 4997 ft | 250 kts | 231° |
| 2026-04-22 09:19 | 12.86590 | 80.00246 | 5005 ft | 251 kts | 230° |
| 2026-04-22 09:20 | 12.85522 | 79.98824 | 5004 ft | 251 kts | 230° |
| 2026-04-22 09:20 | 12.84457 | 79.97411 | 5001 ft | 250 kts | 230° |
| 2026-04-22 09:20 | 12.83390 | 79.95999 | 5139 ft | 252 kts | 231° |
| 2026-04-22 09:20 | 12.82307 | 79.94567 | 5740 ft | 256 kts | 231° |
| 2026-04-22 09:21 | 12.81201 | 79.93104 | 6390 ft | 263 kts | 231° |
| 2026-04-22 09:21 | 12.80741 | 79.92496 | 6638 ft | 266 kts | 231° |
| 2026-04-22 09:21 | 12.79603 | 79.90991 | 7331 ft | 268 kts | 231° |
| 2026-04-22 09:21 | 12.78847 | 79.89990 | 7810 ft | 269 kts | 231° |
| 2026-04-22 09:22 | 12.77693 | 79.88462 | 8523 ft | 273 kts | 230° |
| 2026-04-22 09:22 | 12.76526 | 79.86918 | 9255 ft | 275 kts | 231° |
| 2026-04-22 09:22 | 12.75344 | 79.85355 | 9931 ft | 279 kts | 230° |
| 2026-04-22 09:22 | 12.74150 | 79.83775 | 10604 ft | 281 kts | 231° |
| 2026-04-22 09:23 | 12.72950 | 79.82187 | 11312 ft | 283 kts | 231° |
| 2026-04-22 09:23 | 12.71347 | 79.80066 | 12282 ft | 285 kts | 231° |
| 2026-04-22 09:23 | 12.70127 | 79.78453 | 13017 ft | 288 kts | 231° |
| 2026-04-22 09:23 | 12.68895 | 79.76824 | 13742 ft | 291 kts | 231° |
| 2026-04-22 09:24 | 12.68054 | 79.75713 | 14191 ft | 291 kts | 232° |
| 2026-04-22 09:24 | 12.66816 | 79.74077 | 14914 ft | 290 kts | 232° |
| 2026-04-22 09:24 | 12.65580 | 79.72445 | 15612 ft | 291 kts | 232° |
| 2026-04-22 09:24 | 12.64353 | 79.70824 | 16295 ft | 292 kts | 233° |
| 2026-04-22 09:25 | 12.63111 | 79.69183 | 17012 ft | 291 kts | 233° |
| 2026-04-22 09:25 | 12.61876 | 79.67552 | 17810 ft | 288 kts | 233° |
| 2026-04-22 09:25 | 12.60654 | 79.65939 | 18507 ft | 286 kts | 233° |
| 2026-04-22 09:25 | 12.59424 | 79.64315 | 19037 ft | 290 kts | 233° |
| 2026-04-22 09:26 | 12.58125 | 79.62721 | 19595 ft | 293 kts | 228° |
| 2026-04-22 09:26 | 12.56653 | 79.61260 | 20140 ft | 296 kts | 221° |
| 2026-04-22 09:26 | 12.54989 | 79.59996 | 20685 ft | 300 kts | 213° |
| 2026-04-22 09:26 | 12.53143 | 79.58985 | 21219 ft | 303 kts | 205° |
| 2026-04-22 09:27 | 12.51181 | 79.58144 | 21736 ft | 307 kts | 202° |
| 2026-04-22 09:27 | 12.49165 | 79.57383 | 22259 ft | 310 kts | 200° |
| 2026-04-22 09:27 | 12.47116 | 79.56658 | 22776 ft | 313 kts | 200° |
| 2026-04-22 09:27 | 12.45043 | 79.55941 | 23299 ft | 316 kts | 200° |
| 2026-04-22 09:28 | 12.42955 | 79.55216 | 23743 ft | 318 kts | 200° |
| 2026-04-22 09:28 | 12.40856 | 79.54479 | 24170 ft | 320 kts | 200° |
| 2026-04-22 09:28 | 12.38745 | 79.53729 | 24631 ft | 321 kts | 200° |
| 2026-04-22 09:28 | 12.36656 | 79.52982 | 25071 ft | 323 kts | 200° |
| 2026-04-22 09:29 | 12.34530 | 79.52217 | 25507 ft | 325 kts | 201° |
| 2026-04-22 09:29 | 12.32389 | 79.51443 | 25910 ft | 327 kts | 201° |
| 2026-04-22 09:29 | 12.30229 | 79.50662 | 26300 ft | 330 kts | 201° |
| 2026-04-22 09:29 | 12.28058 | 79.49876 | 26677 ft | 332 kts | 201° |
| 2026-04-22 09:30 | 12.25868 | 79.49084 | 26982 ft | 337 kts | 201° |
| 2026-04-22 09:30 | 12.23630 | 79.48274 | 27151 ft | 345 kts | 201° |
| 2026-04-22 09:30 | 12.21335 | 79.47444 | 27296 ft | 354 kts | 201° |
| 2026-04-22 09:30 | 12.18983 | 79.46594 | 27427 ft | 362 kts | 201° |
| 2026-04-22 09:31 | 12.16576 | 79.45725 | 27561 ft | 371 kts | 201° |
| 2026-04-22 09:31 | 12.14119 | 79.44839 | 27694 ft | 379 kts | 201° |
| 2026-04-22 09:31 | 12.11562 | 79.44075 | 27817 ft | 387 kts | 193° |
| 2026-04-22 09:31 | 12.08858 | 79.43699 | 27947 ft | 396 kts | 187° |
| 2026-04-22 09:32 | 12.06084 | 79.43512 | 28072 ft | 403 kts | 185° |
| 2026-04-22 09:32 | 12.03258 | 79.43409 | 28188 ft | 410 kts | 184° |
| 2026-04-22 09:32 | 12.00383 | 79.43351 | 28302 ft | 416 kts | 183° |
| 2026-04-22 09:32 | 11.97465 | 79.43310 | 28406 ft | 422 kts | 183° |
| 2026-04-22 09:33 | 11.94511 | 79.43271 | 28518 ft | 428 kts | 183° |
| 2026-04-22 09:33 | 11.91515 | 79.43225 | 28627 ft | 433 kts | 183° |
| 2026-04-22 09:33 | 11.88486 | 79.43172 | 28729 ft | 438 kts | 184° |
| 2026-04-22 09:33 | 11.85423 | 79.43112 | 28895 ft | 441 kts | 184° |
| 2026-04-22 09:34 | 11.82346 | 79.43049 | 29155 ft | 442 kts | 184° |
| 2026-04-22 09:34 | 11.79274 | 79.42985 | 29500 ft | 441 kts | 184° |
| 2026-04-22 09:34 | 11.76209 | 79.42920 | 29882 ft | 439 kts | 184° |
| 2026-04-22 09:35 | 11.70159 | 79.42791 | 30494 ft | 436 kts | 184° |
| 2026-04-22 09:35 | 11.67126 | 79.42727 | 30793 ft | 435 kts | 184° |
| 2026-04-22 09:35 | 11.64102 | 79.42662 | 31092 ft | 434 kts | 184° |
| 2026-04-22 09:35 | 11.61093 | 79.42599 | 31435 ft | 431 kts | 184° |
| 2026-04-22 09:36 | 11.58099 | 79.42536 | 31738 ft | 430 kts | 184° |
| 2026-04-22 09:36 | 11.55106 | 79.42471 | 32033 ft | 429 kts | 183° |
| 2026-04-22 09:36 | 11.52121 | 79.42407 | 32295 ft | 428 kts | 183° |
| 2026-04-22 09:36 | 11.49145 | 79.42342 | 32566 ft | 427 kts | 183° |
| 2026-04-22 09:37 | 11.46174 | 79.42278 | 32856 ft | 426 kts | 183° |
| 2026-04-22 09:37 | 11.43212 | 79.42214 | 33121 ft | 426 kts | 183° |
| 2026-04-22 09:37 | 11.40252 | 79.42151 | 33388 ft | 425 kts | 183° |
| 2026-04-22 09:37 | 11.37299 | 79.42088 | 33653 ft | 424 kts | 183° |
| 2026-04-22 09:38 | 11.34392 | 79.42026 | 33896 ft | 423 kts | 183° |
| 2026-04-22 09:38 | 11.31417 | 79.41962 | 34131 ft | 421 kts | 183° |
| 2026-04-22 09:38 | 11.28527 | 79.41900 | 34358 ft | 420 kts | 183° |
| 2026-04-22 09:38 | 11.25607 | 79.41838 | 34578 ft | 419 kts | 183° |
| 2026-04-22 09:39 | 11.22698 | 79.41776 | 34780 ft | 418 kts | 182° |
| 2026-04-22 09:39 | 11.19790 | 79.41714 | 34990 ft | 417 kts | 182° |
| 2026-04-22 09:39 | 11.16896 | 79.41652 | 35178 ft | 416 kts | 182° |
| 2026-04-22 09:39 | 11.14004 | 79.41590 | 35369 ft | 415 kts | 182° |
| 2026-04-22 09:40 | 11.11122 | 79.41528 | 35549 ft | 414 kts | 182° |
| 2026-04-22 09:40 | 11.08241 | 79.41467 | 35716 ft | 413 kts | 182° |
| 2026-04-22 09:40 | 11.05365 | 79.41406 | 35869 ft | 413 kts | 182° |
| 2026-04-22 09:40 | 11.02495 | 79.41344 | 36020 ft | 412 kts | 182° |
| 2026-04-22 09:41 | 10.99624 | 79.41283 | 36164 ft | 412 kts | 182° |
| 2026-04-22 09:41 | 10.96759 | 79.41222 | 36293 ft | 411 kts | 182° |
| 2026-04-22 09:41 | 10.93898 | 79.41161 | 36410 ft | 412 kts | 182° |
| 2026-04-22 09:41 | 10.91031 | 79.41100 | 36501 ft | 412 kts | 182° |
| 2026-04-22 09:42 | 10.85326 | 79.40979 | 36670 ft | 413 kts | 182° |
| 2026-04-22 09:42 | 10.79558 | 79.40856 | 36770 ft | 415 kts | 182° |
| 2026-04-22 09:43 | 10.73772 | 79.40734 | 36769 ft | 416 kts | 181° |
| 2026-04-22 09:43 | 10.67975 | 79.40611 | 36772 ft | 417 kts | 181° |
| 2026-04-22 09:44 | 10.62165 | 79.40488 | 36776 ft | 418 kts | 181° |
| 2026-04-22 09:44 | 10.56349 | 79.40365 | 36772 ft | 418 kts | 181° |
| 2026-04-22 09:45 | 10.50534 | 79.40242 | 36771 ft | 418 kts | 181° |
| 2026-04-22 09:45 | 10.44744 | 79.40119 | 36776 ft | 419 kts | 181° |
| 2026-04-22 09:46 | 10.38918 | 79.39996 | 36775 ft | 419 kts | 181° |
| 2026-04-22 09:46 | 10.33091 | 79.39872 | 36774 ft | 419 kts | 181° |
| 2026-04-22 09:47 | 10.27268 | 79.39750 | 36776 ft | 418 kts | 181° |
| 2026-04-22 09:47 | 10.21443 | 79.39626 | 36781 ft | 418 kts | 181° |
| 2026-04-22 09:48 | 10.15621 | 79.39503 | 36783 ft | 418 kts | 181° |
| 2026-04-22 09:48 | 10.09804 | 79.39380 | 36781 ft | 418 kts | 181° |
| 2026-04-22 09:49 | 10.04019 | 79.39258 | 36786 ft | 418 kts | 181° |
| 2026-04-22 09:49 | 9.98203 | 79.39135 | 36783 ft | 418 kts | 181° |
| 2026-04-22 09:50 | 9.92393 | 79.39013 | 36781 ft | 418 kts | 181° |
| 2026-04-22 09:50 | 9.86578 | 79.38890 | 36782 ft | 418 kts | 181° |
| 2026-04-22 09:51 | 9.80765 | 79.38768 | 36783 ft | 417 kts | 181° |
| 2026-04-22 09:51 | 9.74960 | 79.38645 | 36782 ft | 417 kts | 181° |
| 2026-04-22 09:52 | 9.69150 | 79.38523 | 36781 ft | 417 kts | 181° |
| 2026-04-22 09:52 | 9.63342 | 79.38400 | 36781 ft | 417 kts | 181° |
| 2026-04-22 09:53 | 9.57537 | 79.38278 | 36782 ft | 417 kts | 181° |
| 2026-04-22 09:53 | 9.51774 | 79.38157 | 36783 ft | 417 kts | 181° |
| 2026-04-22 09:54 | 9.45976 | 79.38035 | 36784 ft | 416 kts | 181° |
| 2026-04-22 09:54 | 9.40178 | 79.37913 | 36783 ft | 416 kts | 181° |
| 2026-04-22 09:55 | 9.34383 | 79.37791 | 36782 ft | 416 kts | 181° |
| 2026-04-22 09:55 | 9.28592 | 79.37669 | 36781 ft | 416 kts | 181° |
| 2026-04-22 09:56 | 9.22829 | 79.37548 | 36778 ft | 416 kts | 181° |
| 2026-04-22 09:56 | 9.17037 | 79.37426 | 36778 ft | 416 kts | 181° |
| 2026-04-22 09:57 | 9.11246 | 79.37305 | 36781 ft | 416 kts | 181° |
| 2026-04-22 09:57 | 9.05456 | 79.37183 | 36784 ft | 416 kts | 181° |
| 2026-04-22 09:58 | 8.99670 | 79.37062 | 36782 ft | 416 kts | 181° |
| 2026-04-22 09:58 | 8.93882 | 79.36940 | 36781 ft | 416 kts | 181° |
| 2026-04-22 09:59 | 8.88095 | 79.36819 | 36782 ft | 416 kts | 181° |
| 2026-04-22 09:59 | 8.82315 | 79.36698 | 36783 ft | 416 kts | 181° |
| 2026-04-22 10:00 | 8.76569 | 79.36578 | 36784 ft | 415 kts | 180° |
| 2026-04-22 10:00 | 8.73701 | 79.36833 | 36787 ft | 415 kts | 168° |
| 2026-04-22 10:00 | 8.70904 | 79.37580 | 36785 ft | 415 kts | 165° |
| 2026-04-22 10:01 | 8.65381 | 79.39355 | 36782 ft | 417 kts | 163° |
| 2026-04-22 10:01 | 8.59864 | 79.41193 | 36782 ft | 417 kts | 163° |
| 2026-04-22 10:02 | 8.54342 | 79.43040 | 36630 ft | 419 kts | 163° |
| 2026-04-22 10:02 | 8.51572 | 79.43968 | 35916 ft | 423 kts | 163° |
| 2026-04-22 10:02 | 8.48770 | 79.44906 | 35617 ft | 424 kts | 163° |
| 2026-04-22 10:03 | 8.43262 | 79.46751 | 35773 ft | 409 kts | 163° |
| 2026-04-22 10:03 | 8.40575 | 79.47651 | 35471 ft | 403 kts | 163° |
| 2026-04-22 10:03 | 8.37885 | 79.48551 | 34183 ft | 412 kts | 163° |
| 2026-04-22 10:04 | 8.35169 | 79.49459 | 32783 ft | 421 kts | 163° |
| 2026-04-22 10:04 | 8.32359 | 79.50398 | 31428 ft | 428 kts | 163° |
| 2026-04-22 10:04 | 8.29528 | 79.51346 | 30378 ft | 428 kts | 163° |
| 2026-04-22 10:04 | 8.26706 | 79.52291 | 29412 ft | 425 kts | 163° |
| 2026-04-22 10:05 | 8.23913 | 79.53225 | 28433 ft | 421 kts | 163° |
| 2026-04-22 10:05 | 8.21154 | 79.54149 | 27538 ft | 415 kts | 163° |
| 2026-04-22 10:05 | 8.18423 | 79.55061 | 26640 ft | 411 kts | 162° |
| 2026-04-22 10:05 | 8.15724 | 79.55964 | 25804 ft | 406 kts | 162° |
| 2026-04-22 10:06 | 8.13057 | 79.56855 | 25192 ft | 401 kts | 162° |
| 2026-04-22 10:06 | 8.10414 | 79.57738 | 24713 ft | 398 kts | 162° |
| 2026-04-22 10:06 | 8.07790 | 79.58614 | 23866 ft | 397 kts | 161° |
| 2026-04-22 10:06 | 8.05178 | 79.59486 | 23022 ft | 393 kts | 161° |
| 2026-04-22 10:07 | 8.02588 | 79.60351 | 22095 ft | 390 kts | 161° |
| 2026-04-22 10:07 | 8.00023 | 79.61208 | 21213 ft | 386 kts | 161° |
| 2026-04-22 10:07 | 7.97486 | 79.62056 | 20355 ft | 383 kts | 161° |
| 2026-04-22 10:07 | 7.94969 | 79.62896 | 19519 ft | 379 kts | 161° |
| 2026-04-22 10:08 | 7.92488 | 79.63724 | 18930 ft | 369 kts | 161° |
| 2026-04-22 10:08 | 7.90100 | 79.64521 | 18542 ft | 354 kts | 161° |
| 2026-04-22 10:08 | 7.87790 | 79.65292 | 18018 ft | 345 kts | 161° |
| 2026-04-22 10:08 | 7.85521 | 79.66048 | 17278 ft | 342 kts | 161° |
| 2026-04-22 10:09 | 7.83303 | 79.66789 | 16588 ft | 338 kts | 161° |
| 2026-04-22 10:09 | 7.81091 | 79.67527 | 15959 ft | 332 kts | 161° |
| 2026-04-22 10:09 | 7.78907 | 79.68256 | 15247 ft | 330 kts | 161° |
| 2026-04-22 10:09 | 7.76842 | 79.69254 | 14272 ft | 334 kts | 139° |
| 2026-04-22 10:10 | 7.75386 | 79.71082 | 13261 ft | 338 kts | 115° |
| 2026-04-22 10:10 | 7.74449 | 79.73248 | 12375 ft | 336 kts | 110° |
| 2026-04-22 10:10 | 7.73593 | 79.75419 | 11608 ft | 331 kts | 110° |
| 2026-04-22 10:10 | 7.72677 | 79.77534 | 10829 ft | 327 kts | 117° |
| 2026-04-22 10:11 | 7.71467 | 79.79454 | 10190 ft | 319 kts | 119° |
| 2026-04-22 10:11 | 7.70864 | 79.80767 | 10000 ft | 306 kts | 109° |
| 2026-04-22 10:11 | 7.70129 | 79.82736 | 9814 ft | 296 kts | 109° |
| 2026-04-22 10:11 | 7.69429 | 79.84680 | 10043 ft | 296 kts | 108° |
| 2026-04-22 10:12 | 7.68453 | 79.87390 | 10414 ft | 320 kts | 109° |
| 2026-04-22 10:12 | 7.67936 | 79.88809 | 10594 ft | 331 kts | 109° |
| 2026-04-22 10:12 | 7.67118 | 79.91040 | 10895 ft | 345 kts | 109° |
| 2026-04-22 10:12 | 7.66269 | 79.93338 | 11319 ft | 353 kts | 109° |
| 2026-04-22 10:13 | 7.65404 | 79.95671 | 11765 ft | 357 kts | 110° |
| 2026-04-22 10:13 | 7.64235 | 79.98785 | 11889 ft | 359 kts | 112° |
| 2026-04-22 10:13 | 7.63472 | 80.00306 | 11796 ft | 361 kts | 122° |
| 2026-04-22 10:13 | 7.61809 | 80.02176 | 11495 ft | 359 kts | 142° |
| 2026-04-22 10:14 | 7.59592 | 80.03260 | 11149 ft | 350 kts | 165° |
| 2026-04-22 10:14 | 7.57218 | 80.03518 | 10956 ft | 337 kts | 178° |
| 2026-04-22 10:14 | 7.54919 | 80.03501 | 10772 ft | 324 kts | 180° |
| 2026-04-22 10:14 | 7.52735 | 80.03444 | 10562 ft | 313 kts | 180° |
| 2026-04-22 10:15 | 7.50588 | 80.03389 | 10275 ft | 305 kts | 180° |
| 2026-04-22 10:15 | 7.48472 | 80.03337 | 9861 ft | 303 kts | 180° |
| 2026-04-22 10:15 | 7.46370 | 80.03292 | 9491 ft | 299 kts | 180° |
| 2026-04-22 10:15 | 7.44332 | 80.03250 | 9335 ft | 286 kts | 180° |
| 2026-04-22 10:16 | 7.42373 | 80.03209 | 9053 ft | 279 kts | 179° |
| 2026-04-22 10:16 | 7.40451 | 80.03171 | 8760 ft | 273 kts | 179° |
| 2026-04-22 10:16 | 7.38569 | 80.03123 | 8419 ft | 269 kts | 182° |
| 2026-04-22 10:16 | 7.36774 | 80.02664 | 8057 ft | 268 kts | 206° |
| 2026-04-22 10:17 | 7.35197 | 80.01663 | 7653 ft | 268 kts | 215° |
| 2026-04-22 10:17 | 7.33705 | 80.00551 | 7269 ft | 267 kts | 216° |
| 2026-04-22 10:17 | 7.32230 | 79.99431 | 6911 ft | 265 kts | 216° |
| 2026-04-22 10:17 | 7.30756 | 79.98327 | 6562 ft | 263 kts | 216° |
| 2026-04-22 10:18 | 7.29841 | 79.97633 | 4684 ft | 255 kts | 217° |
| 2026-04-22 10:18 | 7.28461 | 79.96554 | 4421 ft | 251 kts | 217° |
| 2026-04-22 10:18 | 7.27106 | 79.95479 | 4076 ft | 250 kts | 218° |
| 2026-04-22 10:18 | 7.25760 | 79.94358 | 3544 ft | 256 kts | 222° |
| 2026-04-22 10:19 | 7.24379 | 79.93087 | 2554 ft | 277 kts | 223° |
| 2026-04-22 10:19 | 7.22916 | 79.91914 | 1917 ft | 252 kts | 216° |
| 2026-04-22 10:19 | 7.21537 | 79.90985 | 1075 ft | 233 kts | 217° |
| 2026-04-22 10:19 | 7.20278 | 79.90031 | 417 ft | 217 kts | 219° |
| 2026-04-22 10:20 | 7.19111 | 79.89146 | 65 ft | 199 kts | 218° |
| 2026-04-22 10:20 | 7.18244 | 79.88418 | 37 ft | 91 kts | 172° |
| 2026-04-22 10:20 | 7.17953 | 79.88264 | 38 ft | 19 kts | 213° |
| 2026-04-22 10:20 | 7.17870 | 79.88240 | 39 ft | 16 kts | 154° |
| 2026-04-22 10:21 | 7.17775 | 79.88328 | 37 ft | 14 kts | 168° |
| 2026-04-22 10:21 | 7.17706 | 79.88297 | 35 ft | 14 kts | 217° |
| 2026-04-22 10:21 | 7.17606 | 79.88293 | 37 ft | 18 kts | 131° |
| 2026-04-22 10:21 | 7.17529 | 79.88395 | 37 ft | 7 kts | 121° |
| 2026-04-22 10:22 | 7.17530 | 79.88436 | 37 ft | 6 kts | 66° |
| 2026-04-22 10:22 | 7.17547 | 79.88456 | 36 ft | 7 kts | 38° |
| 2026-04-22 10:22 | 7.17562 | 79.88467 | 37 ft | 3 kts | 38° |
| 2026-04-22 10:22 | 7.17563 | 79.88468 | 37 ft | 0 kts | 38° |